createdAt,value
2022-09-26T00:13:06.801Z,1.2
2022-09-26T00:23:06.818Z,1.2
2022-09-26T00:43:06.888Z,1.1
2022-09-26T01:13:06.950Z,1
2022-09-26T01:23:06.948Z,1
2022-09-26T01:33:06.981Z,1
2022-09-26T01:43:06.987Z,0.9
2022-09-26T01:53:07.014Z,1
2022-09-26T02:03:07.089Z,1
2022-09-26T02:13:07.080Z,1
2022-09-26T02:33:07.105Z,1
2022-09-26T02:53:07.153Z,1.1
2022-09-26T03:13:07.216Z,1.2
2022-09-26T03:23:07.198Z,1.2
2022-09-26T03:33:07.343Z,1.2
2022-09-26T03:43:07.240Z,1.2
2022-09-26T03:53:07.276Z,1.2
2022-09-26T04:13:07.334Z,1.1
2022-09-26T04:23:07.321Z,1.2
2022-09-26T04:43:07.391Z,1.3
2022-09-26T04:53:07.394Z,1.3
2022-09-26T05:13:07.440Z,1.4
2022-09-26T05:23:07.465Z,1.3
2022-09-26T06:03:07.584Z,1.6
2022-09-26T06:23:07.606Z,1.7
2022-09-26T06:53:11.725Z,1.8
2022-09-26T07:23:07.729Z,2
2022-09-26T07:33:07.733Z,2
2022-09-26T08:13:07.833Z,3
2022-09-26T08:23:07.856Z,3.2
2022-09-26T08:33:07.888Z,3.5
2022-09-26T08:43:07.848Z,3.6
2022-09-26T08:53:08.012Z,3.5
2022-09-26T09:03:07.992Z,3.1
2022-09-26T09:13:07.946Z,2.9
2022-09-26T09:23:07.934Z,3
2022-09-26T09:33:07.972Z,2.9
2022-09-26T10:03:08.124Z,2.2
2022-09-26T10:13:08.012Z,2.1
2022-09-26T10:43:08.173Z,1.5
2022-09-26T10:53:08.100Z,1.4
2022-09-26T11:03:08.229Z,1.3
2022-09-26T11:13:08.145Z,1.4
2022-09-26T11:23:08.189Z,1.3
2022-09-26T11:33:08.168Z,1.3
2022-09-26T11:43:08.238Z,1.3
2022-09-26T11:53:08.237Z,1.3
2022-09-26T12:03:08.407Z,1.4
2022-09-26T12:13:08.261Z,1.7
2022-09-26T12:23:08.312Z,1.8
2022-09-26T12:43:08.370Z,2.3
2022-09-26T12:53:08.325Z,2.7
2022-09-26T13:33:08.458Z,3.3
2022-09-26T14:23:08.541Z,1.7
2022-09-26T14:33:08.530Z,1.4
2022-09-26T14:43:08.609Z,1.3
2022-09-26T14:53:08.570Z,1.1
2022-09-26T15:03:08.811Z,1.1
2022-09-26T15:13:08.591Z,0.9
2022-09-26T15:23:08.646Z,0.9
2022-09-26T15:33:10.382Z,0.9
2022-09-26T15:43:08.679Z,0.9
2022-09-26T16:03:08.844Z,1
2022-09-26T16:13:08.718Z,1
2022-09-26T16:23:08.758Z,1.1
2022-09-26T16:33:08.770Z,1.1
2022-09-26T16:43:08.782Z,1.1
2022-09-26T16:53:08.810Z,1.1
2022-09-26T17:03:08.918Z,1.1
2022-09-26T17:13:08.841Z,1
2022-09-26T17:23:34.948Z,0.9
2022-09-26T17:33:08.887Z,0.9
2022-09-26T17:43:08.923Z,0.8
2022-09-26T17:53:08.926Z,0.8
2022-09-26T18:03:09.088Z,0.8
2022-09-26T18:13:13.128Z,0.7
2022-09-26T18:23:08.980Z,0.7
2022-09-26T18:33:09.006Z,0.7
2022-09-26T18:43:09.052Z,0.6
2022-09-26T19:03:09.097Z,0.5
2022-09-26T19:13:09.094Z,0.6
2022-09-26T19:33:09.140Z,0.5
2022-09-26T19:43:09.169Z,0.5
2022-09-26T19:53:09.180Z,0.5
2022-09-26T20:53:09.322Z,0.4
2022-09-26T21:03:09.320Z,0.4
2022-09-26T21:13:09.352Z,0.4
2022-09-26T21:23:09.350Z,0.4
2022-09-26T21:33:09.409Z,0.4
2022-09-26T21:43:09.394Z,0.4
2022-09-26T21:53:09.466Z,0.4
2022-09-26T22:03:09.425Z,0.4
2022-09-26T22:23:09.510Z,0.4
2022-09-26T22:33:09.500Z,0.3
2022-09-26T22:43:09.527Z,0.3
2022-09-26T22:53:09.544Z,0.4
2022-09-26T23:03:09.581Z,0.4
